sensor_id;sensor_type;location;lat;lon;timestamp;temperature;humidity
12335;DHT22;6233;51.560;9.986;2023-05-07T00:02:23;11.10;99.90
12335;DHT22;6233;51.560;9.986;2023-05-07T00:05:25;11.10;99.90
12335;DHT22;6233;51.560;9.986;2023-05-07T00:08:27;11.10;99.90
12335;DHT22;6233;51.560;9.986;2023-05-07T00:11:29;11.00;99.90
12335;DHT22;6233;51.560;9.986;2023-05-07T00:14:31;11.00;99.90
12335;DHT22;6233;51.560;9.986;2023-05-07T00:17:33;11.00;99.90
12335;DHT22;6233;51.560;9.986;2023-05-07T00:20:37;11.00;99.90
12335;DHT22;6233;51.560;9.986;2023-05-07T00:23:39;10.90;99.90
12335;DHT22;6233;51.560;9.986;2023-05-07T00:26:41;11.00;99.90
12335;DHT22;6233;51.560;9.986;2023-05-07T00:29:42;11.00;99.90
12335;DHT22;6233;51.560;9.986;2023-05-07T00:32:44;11.00;99.90
12335;DHT22;6233;51.560;9.986;2023-05-07T00:35:50;11.00;99.90
12335;DHT22;6233;51.560;9.986;2023-05-07T00:38:53;11.00;99.90
12335;DHT22;6233;51.560;9.986;2023-05-07T00:41:55;11.00;99.90
12335;DHT22;6233;51.560;9.986;2023-05-07T00:44:56;11.10;99.90
12335;DHT22;6233;51.560;9.986;2023-05-07T00:48:00;11.10;99.90
12335;DHT22;6233;51.560;9.986;2023-05-07T00:51:03;11.10;99.90
12335;DHT22;6233;51.560;9.986;2023-05-07T00:54:04;11.10;99.90
12335;DHT22;6233;51.560;9.986;2023-05-07T00:57:06;10.90;99.90
12335;DHT22;6233;51.560;9.986;2023-05-07T01:00:09;10.90;99.90
12335;DHT22;6233;51.560;9.986;2023-05-07T01:03:11;10.70;99.90
12335;DHT22;6233;51.560;9.986;2023-05-07T01:06:14;10.70;99.90
12335;DHT22;6233;51.560;9.986;2023-05-07T01:09:19;10.70;99.90
12335;DHT22;6233;51.560;9.986;2023-05-07T01:12:22;10.70;99.90
12335;DHT22;6233;51.560;9.986;2023-05-07T01:15:24;10.80;99.90
12335;DHT22;6233;51.560;9.986;2023-05-07T01:18:26;10.70;99.90
12335;DHT22;6233;51.560;9.986;2023-05-07T01:21:31;10.60;99.90
12335;DHT22;6233;51.560;9.986;2023-05-07T01:24:35;10.60;99.90
12335;DHT22;6233;51.560;9.986;2023-05-07T01:27:37;10.60;99.90
12335;DHT22;6233;51.560;9.986;2023-05-07T01:30:41;10.50;99.90
12335;DHT22;6233;51.560;9.986;2023-05-07T01:33:46;10.40;99.90
12335;DHT22;6233;51.560;9.986;2023-05-07T01:36:50;10.40;99.90
12335;DHT22;6233;51.560;9.986;2023-05-07T01:39:52;10.40;99.90
12335;DHT22;6233;51.560;9.986;2023-05-07T01:42:55;10.40;99.90
12335;DHT22;6233;51.560;9.986;2023-05-07T01:45:57;10.30;99.90
12335;DHT22;6233;51.560;9.986;2023-05-07T01:49:00;10.40;99.90
12335;DHT22;6233;51.560;9.986;2023-05-07T01:52:02;10.40;99.90
12335;DHT22;6233;51.560;9.986;2023-05-07T01:55:05;10.30;99.90
12335;DHT22;6233;51.560;9.986;2023-05-07T01:58:07;10.30;99.90
12335;DHT22;6233;51.560;9.986;2023-05-07T02:01:08;10.20;99.90
12335;DHT22;6233;51.560;9.986;2023-05-07T02:04:10;10.20;99.90
12335;DHT22;6233;51.560;9.986;2023-05-07T02:07:12;10.20;99.90
12335;DHT22;6233;51.560;9.986;2023-05-07T02:10:14;10.20;99.90
12335;DHT22;6233;51.560;9.986;2023-05-07T02:13:15;10.20;99.90
12335;DHT22;6233;51.560;9.986;2023-05-07T02:16:17;10.20;99.90
12335;DHT22;6233;51.560;9.986;2023-05-07T02:19:20;10.10;99.90
12335;DHT22;6233;51.560;9.986;2023-05-07T02:22:22;10.00;99.90
12335;DHT22;6233;51.560;9.986;2023-05-07T02:25:24;10.00;99.90
12335;DHT22;6233;51.560;9.986;2023-05-07T02:28:26;10.00;99.90
12335;DHT22;6233;51.560;9.986;2023-05-07T02:31:27;10.10;99.90
12335;DHT22;6233;51.560;9.986;2023-05-07T02:34:29;10.10;99.90
12335;DHT22;6233;51.560;9.986;2023-05-07T02:37:31;10.00;99.90
12335;DHT22;6233;51.560;9.986;2023-05-07T02:40:33;10.00;99.90
12335;DHT22;6233;51.560;9.986;2023-05-07T02:43:35;10.10;99.90
12335;DHT22;6233;51.560;9.986;2023-05-07T02:46:36;10.10;99.90
12335;DHT22;6233;51.560;9.986;2023-05-07T02:49:38;10.10;99.90
12335;DHT22;6233;51.560;9.986;2023-05-07T02:52:40;10.10;99.90
12335;DHT22;6233;51.560;9.986;2023-05-07T02:55:57;10.10;99.90
12335;DHT22;6233;51.560;9.986;2023-05-07T02:58:59;10.00;99.90
12335;DHT22;6233;51.560;9.986;2023-05-07T03:02:00;10.10;99.90
12335;DHT22;6233;51.560;9.986;2023-05-07T03:05:02;10.00;99.90
12335;DHT22;6233;51.560;9.986;2023-05-07T03:08:05;10.00;99.90
12335;DHT22;6233;51.560;9.986;2023-05-07T03:11:06;10.00;99.90
12335;DHT22;6233;51.560;9.986;2023-05-07T03:14:08;10.00;99.90
12335;DHT22;6233;51.560;9.986;2023-05-07T03:17:10;10.00;99.90
12335;DHT22;6233;51.560;9.986;2023-05-07T03:20:12;9.90;99.90
12335;DHT22;6233;51.560;9.986;2023-05-07T03:23:15;9.80;99.90
12335;DHT22;6233;51.560;9.986;2023-05-07T03:26:16;9.70;99.90
12335;DHT22;6233;51.560;9.986;2023-05-07T03:29:18;9.60;99.90
12335;DHT22;6233;51.560;9.986;2023-05-07T03:32:20;9.60;99.90
12335;DHT22;6233;51.560;9.986;2023-05-07T03:35:21;9.60;99.90
12335;DHT22;6233;51.560;9.986;2023-05-07T03:38:23;9.60;99.90
12335;DHT22;6233;51.560;9.986;2023-05-07T03:41:25;9.70;99.90
12335;DHT22;6233;51.560;9.986;2023-05-07T03:44:27;9.70;99.90
12335;DHT22;6233;51.560;9.986;2023-05-07T03:47:29;9.80;99.90
12335;DHT22;6233;51.560;9.986;2023-05-07T03:50:31;9.80;99.90
12335;DHT22;6233;51.560;9.986;2023-05-07T03:53:32;9.70;99.90
12335;DHT22;6233;51.560;9.986;2023-05-07T03:56:34;9.60;99.90
12335;DHT22;6233;51.560;9.986;2023-05-07T03:59:36;9.60;99.90
12335;DHT22;6233;51.560;9.986;2023-05-07T04:02:38;9.50;99.90
12335;DHT22;6233;51.560;9.986;2023-05-07T04:05:40;9.50;99.90
12335;DHT22;6233;51.560;9.986;2023-05-07T04:08:42;9.40;99.90
12335;DHT22;6233;51.560;9.986;2023-05-07T04:11:44;9.30;99.90
12335;DHT22;6233;51.560;9.986;2023-05-07T04:14:45;9.20;99.90
12335;DHT22;6233;51.560;9.986;2023-05-07T04:17:47;9.30;99.90
12335;DHT22;6233;51.560;9.986;2023-05-07T04:20:49;9.30;99.90
12335;DHT22;6233;51.560;9.986;2023-05-07T04:23:51;9.30;99.90
12335;DHT22;6233;51.560;9.986;2023-05-07T04:26:53;9.30;99.90
12335;DHT22;6233;51.560;9.986;2023-05-07T04:29:54;9.30;99.90
12335;DHT22;6233;51.560;9.986;2023-05-07T04:32:57;9.30;99.90
12335;DHT22;6233;51.560;9.986;2023-05-07T04:36:01;9.20;99.90
12335;DHT22;6233;51.560;9.986;2023-05-07T04:39:04;9.20;99.90
12335;DHT22;6233;51.560;9.986;2023-05-07T04:42:06;9.20;99.90
12335;DHT22;6233;51.560;9.986;2023-05-07T04:45:10;9.20;99.90
12335;DHT22;6233;51.560;9.986;2023-05-07T04:48:12;9.30;99.90
12335;DHT22;6233;51.560;9.986;2023-05-07T04:51:16;9.30;99.90
12335;DHT22;6233;51.560;9.986;2023-05-07T04:54:17;9.20;99.90
12335;DHT22;6233;51.560;9.986;2023-05-07T04:57:19;9.20;99.90
12335;DHT22;6233;51.560;9.986;2023-05-07T05:00:21;9.20;99.90
12335;DHT22;6233;51.560;9.986;2023-05-07T05:03:24;9.20;99.90
12335;DHT22;6233;51.560;9.986;2023-05-07T05:06:26;9.20;99.90
12335;DHT22;6233;51.560;9.986;2023-05-07T05:09:28;9.10;99.90
12335;DHT22;6233;51.560;9.986;2023-05-07T05:12:29;9.10;99.90
12335;DHT22;6233;51.560;9.986;2023-05-07T05:15:32;9.10;99.90
12335;DHT22;6233;51.560;9.986;2023-05-07T05:18:34;9.10;99.90
12335;DHT22;6233;51.560;9.986;2023-05-07T05:21:36;9.10;99.90
12335;DHT22;6233;51.560;9.986;2023-05-07T05:24:38;9.20;99.90
12335;DHT22;6233;51.560;9.986;2023-05-07T05:27:39;9.20;99.90
12335;DHT22;6233;51.560;9.986;2023-05-07T05:30:41;9.30;99.90
12335;DHT22;6233;51.560;9.986;2023-05-07T05:33:43;9.30;99.90
12335;DHT22;6233;51.560;9.986;2023-05-07T05:36:45;9.30;99.90
12335;DHT22;6233;51.560;9.986;2023-05-07T05:39:47;9.40;99.90
12335;DHT22;6233;51.560;9.986;2023-05-07T05:42:49;9.30;99.90
12335;DHT22;6233;51.560;9.986;2023-05-07T05:45:50;9.30;99.90
12335;DHT22;6233;51.560;9.986;2023-05-07T05:48:52;9.30;99.90
12335;DHT22;6233;51.560;9.986;2023-05-07T05:51:54;9.40;99.90
12335;DHT22;6233;51.560;9.986;2023-05-07T05:54:57;9.40;99.90
12335;DHT22;6233;51.560;9.986;2023-05-07T05:58:00;9.30;99.90
12335;DHT22;6233;51.560;9.986;2023-05-07T06:01:02;9.40;99.90
12335;DHT22;6233;51.560;9.986;2023-05-07T06:04:04;9.50;99.90
12335;DHT22;6233;51.560;9.986;2023-05-07T06:07:06;9.50;99.90
12335;DHT22;6233;51.560;9.986;2023-05-07T06:10:08;9.40;99.90
12335;DHT22;6233;51.560;9.986;2023-05-07T06:13:10;9.40;99.90
12335;DHT22;6233;51.560;9.986;2023-05-07T06:16:12;9.30;99.90
12335;DHT22;6233;51.560;9.986;2023-05-07T06:19:14;9.40;99.90
12335;DHT22;6233;51.560;9.986;2023-05-07T06:22:15;9.30;99.90
12335;DHT22;6233;51.560;9.986;2023-05-07T06:25:24;9.40;99.90
12335;DHT22;6233;51.560;9.986;2023-05-07T06:28:26;9.50;99.90
12335;DHT22;6233;51.560;9.986;2023-05-07T06:31:30;9.40;99.90
12335;DHT22;6233;51.560;9.986;2023-05-07T06:34:36;9.40;99.90
12335;DHT22;6233;51.560;9.986;2023-05-07T06:37:38;9.30;99.90
12335;DHT22;6233;51.560;9.986;2023-05-07T06:40:41;9.20;99.90
12335;DHT22;6233;51.560;9.986;2023-05-07T06:43:42;9.10;99.90
12335;DHT22;6233;51.560;9.986;2023-05-07T06:46:44;9.20;99.90
12335;DHT22;6233;51.560;9.986;2023-05-07T06:49:46;9.20;99.90
12335;DHT22;6233;51.560;9.986;2023-05-07T06:52:48;9.30;99.90
12335;DHT22;6233;51.560;9.986;2023-05-07T06:55:50;9.20;99.90
12335;DHT22;6233;51.560;9.986;2023-05-07T06:58:51;9.20;99.90
12335;DHT22;6233;51.560;9.986;2023-05-07T07:01:53;9.20;99.90
12335;DHT22;6233;51.560;9.986;2023-05-07T07:04:56;9.30;99.90
12335;DHT22;6233;51.560;9.986;2023-05-07T07:07:58;9.20;99.90
12335;DHT22;6233;51.560;9.986;2023-05-07T07:11:00;9.20;99.90
12335;DHT22;6233;51.560;9.986;2023-05-07T07:14:01;9.20;99.90
12335;DHT22;6233;51.560;9.986;2023-05-07T07:17:03;9.20;99.90
12335;DHT22;6233;51.560;9.986;2023-05-07T07:20:07;9.10;99.90
12335;DHT22;6233;51.560;9.986;2023-05-07T07:23:12;9.20;99.90
12335;DHT22;6233;51.560;9.986;2023-05-07T07:26:13;9.20;99.90
12335;DHT22;6233;51.560;9.986;2023-05-07T07:29:15;9.20;99.90
12335;DHT22;6233;51.560;9.986;2023-05-07T07:32:17;9.20;99.90
12335;DHT22;6233;51.560;9.986;2023-05-07T07:35:19;9.20;99.90
12335;DHT22;6233;51.560;9.986;2023-05-07T07:38:20;9.20;99.90
12335;DHT22;6233;51.560;9.986;2023-05-07T07:41:22;9.20;99.90
12335;DHT22;6233;51.560;9.986;2023-05-07T07:44:25;9.30;99.90
12335;DHT22;6233;51.560;9.986;2023-05-07T07:47:26;9.30;99.90
12335;DHT22;6233;51.560;9.986;2023-05-07T07:50:28;9.20;99.90
12335;DHT22;6233;51.560;9.986;2023-05-07T07:53:46;9.20;99.90
12335;DHT22;6233;51.560;9.986;2023-05-07T07:56:47;9.30;99.90
12335;DHT22;6233;51.560;9.986;2023-05-07T07:59:49;9.30;99.90
12335;DHT22;6233;51.560;9.986;2023-05-07T08:02:51;9.30;99.90
12335;DHT22;6233;51.560;9.986;2023-05-07T08:05:53;9.30;99.90
12335;DHT22;6233;51.560;9.986;2023-05-07T08:08:55;9.30;99.90
12335;DHT22;6233;51.560;9.986;2023-05-07T08:11:57;9.30;99.90
12335;DHT22;6233;51.560;9.986;2023-05-07T08:14:59;9.40;99.90
12335;DHT22;6233;51.560;9.986;2023-05-07T08:18:01;9.30;99.90
12335;DHT22;6233;51.560;9.986;2023-05-07T08:21:03;9.40;99.90
12335;DHT22;6233;51.560;9.986;2023-05-07T08:24:05;9.30;99.90
12335;DHT22;6233;51.560;9.986;2023-05-07T08:27:07;9.30;99.90
12335;DHT22;6233;51.560;9.986;2023-05-07T08:30:09;9.30;99.90
12335;DHT22;6233;51.560;9.986;2023-05-07T08:33:12;9.40;99.90
12335;DHT22;6233;51.560;9.986;2023-05-07T08:36:13;9.40;99.90
12335;DHT22;6233;51.560;9.986;2023-05-07T08:39:15;9.40;99.90
12335;DHT22;6233;51.560;9.986;2023-05-07T08:42:20;9.30;99.90
12335;DHT22;6233;51.560;9.986;2023-05-07T08:45:26;9.30;99.90
12335;DHT22;6233;51.560;9.986;2023-05-07T08:48:29;9.30;99.90
12335;DHT22;6233;51.560;9.986;2023-05-07T08:51:32;9.30;99.90
12335;DHT22;6233;51.560;9.986;2023-05-07T08:54:36;9.50;99.90
12335;DHT22;6233;51.560;9.986;2023-05-07T08:57:38;9.60;99.90
12335;DHT22;6233;51.560;9.986;2023-05-07T09:00:58;9.60;99.90
12335;DHT22;6233;51.560;9.986;2023-05-07T09:04:01;9.60;99.90
12335;DHT22;6233;51.560;9.986;2023-05-07T09:07:04;9.60;99.90
12335;DHT22;6233;51.560;9.986;2023-05-07T09:10:07;9.60;99.90
12335;DHT22;6233;51.560;9.986;2023-05-07T09:13:11;9.70;99.90
12335;DHT22;6233;51.560;9.986;2023-05-07T09:16:15;9.50;99.90
12335;DHT22;6233;51.560;9.986;2023-05-07T09:19:25;9.60;99.90
12335;DHT22;6233;51.560;9.986;2023-05-07T09:22:26;9.60;99.90
12335;DHT22;6233;51.560;9.986;2023-05-07T09:25:32;9.60;99.90
12335;DHT22;6233;51.560;9.986;2023-05-07T09:28:34;9.70;99.90
12335;DHT22;6233;51.560;9.986;2023-05-07T09:31:37;9.70;99.90
12335;DHT22;6233;51.560;9.986;2023-05-07T09:34:39;9.70;99.90
12335;DHT22;6233;51.560;9.986;2023-05-07T09:37:41;9.60;99.90
12335;DHT22;6233;51.560;9.986;2023-05-07T09:40:43;9.60;99.90
12335;DHT22;6233;51.560;9.986;2023-05-07T09:43:45;9.70;99.90
12335;DHT22;6233;51.560;9.986;2023-05-07T09:46:53;9.70;99.90
12335;DHT22;6233;51.560;9.986;2023-05-07T09:49:56;9.70;99.90
12335;DHT22;6233;51.560;9.986;2023-05-07T09:53:01;9.80;99.90
12335;DHT22;6233;51.560;9.986;2023-05-07T09:56:04;9.70;99.90
12335;DHT22;6233;51.560;9.986;2023-05-07T09:59:08;9.70;99.90
12335;DHT22;6233;51.560;9.986;2023-05-07T10:02:12;9.70;99.90
12335;DHT22;6233;51.560;9.986;2023-05-07T10:05:16;9.80;99.90
12335;DHT22;6233;51.560;9.986;2023-05-07T10:08:18;9.90;99.90
12335;DHT22;6233;51.560;9.986;2023-05-07T10:11:22;10.00;99.90
12335;DHT22;6233;51.560;9.986;2023-05-07T10:14:24;10.00;99.90
12335;DHT22;6233;51.560;9.986;2023-05-07T10:17:26;10.00;99.90
12335;DHT22;6233;51.560;9.986;2023-05-07T10:20:28;10.10;99.90
12335;DHT22;6233;51.560;9.986;2023-05-07T10:23:40;10.20;99.90
12335;DHT22;6233;51.560;9.986;2023-05-07T10:26:44;10.30;99.90
12335;DHT22;6233;51.560;9.986;2023-05-07T10:30:00;10.40;99.90
12335;DHT22;6233;51.560;9.986;2023-05-07T10:33:09;10.40;99.90
12335;DHT22;6233;51.560;9.986;2023-05-07T10:36:11;10.40;99.90
12335;DHT22;6233;51.560;9.986;2023-05-07T10:39:13;10.40;99.90
12335;DHT22;6233;51.560;9.986;2023-05-07T10:42:16;10.50;99.90
12335;DHT22;6233;51.560;9.986;2023-05-07T10:45:18;10.50;99.90
12335;DHT22;6233;51.560;9.986;2023-05-07T10:48:20;10.60;99.90
12335;DHT22;6233;51.560;9.986;2023-05-07T10:51:31;10.70;99.90
12335;DHT22;6233;51.560;9.986;2023-05-07T10:54:34;10.80;99.90
12335;DHT22;6233;51.560;9.986;2023-05-07T10:57:38;10.90;99.90
12335;DHT22;6233;51.560;9.986;2023-05-07T11:00:41;10.90;99.90
12335;DHT22;6233;51.560;9.986;2023-05-07T11:04:12;10.80;99.90
12335;DHT22;6233;51.560;9.986;2023-05-07T11:07:28;10.70;99.90
12335;DHT22;6233;51.560;9.986;2023-05-07T11:10:54;10.80;99.90
12335;DHT22;6233;51.560;9.986;2023-05-07T11:13:56;10.70;99.90
12335;DHT22;6233;51.560;9.986;2023-05-07T11:17:02;10.80;99.90
12335;DHT22;6233;51.560;9.986;2023-05-07T11:20:05;10.80;99.90
12335;DHT22;6233;51.560;9.986;2023-05-07T11:23:07;10.90;99.90
12335;DHT22;6233;51.560;9.986;2023-05-07T11:26:10;10.90;99.90
12335;DHT22;6233;51.560;9.986;2023-05-07T11:29:14;10.90;99.90
12335;DHT22;6233;51.560;9.986;2023-05-07T11:32:31;10.90;99.90
12335;DHT22;6233;51.560;9.986;2023-05-07T11:35:34;11.00;99.90
12335;DHT22;6233;51.560;9.986;2023-05-07T11:38:38;11.10;99.90
12335;DHT22;6233;51.560;9.986;2023-05-07T11:41:40;11.30;99.90
12335;DHT22;6233;51.560;9.986;2023-05-07T11:53:38;11.40;99.90
12335;DHT22;6233;51.560;9.986;2023-05-07T11:56:40;11.50;99.90
12335;DHT22;6233;51.560;9.986;2023-05-07T11:59:42;11.50;99.90
12335;DHT22;6233;51.560;9.986;2023-05-07T12:02:45;11.60;99.90
12335;DHT22;6233;51.560;9.986;2023-05-07T12:05:48;11.60;99.90
12335;DHT22;6233;51.560;9.986;2023-05-07T12:08:50;11.70;99.90
12335;DHT22;6233;51.560;9.986;2023-05-07T12:11:52;11.70;99.90
12335;DHT22;6233;51.560;9.986;2023-05-07T12:14:54;11.80;99.90
12335;DHT22;6233;51.560;9.986;2023-05-07T12:17:56;11.80;99.90
12335;DHT22;6233;51.560;9.986;2023-05-07T12:20:59;11.70;99.90
12335;DHT22;6233;51.560;9.986;2023-05-07T12:24:01;11.70;99.90
12335;DHT22;6233;51.560;9.986;2023-05-07T12:27:03;11.60;99.90
12335;DHT22;6233;51.560;9.986;2023-05-07T12:30:05;11.50;99.90
12335;DHT22;6233;51.560;9.986;2023-05-07T12:33:07;11.50;99.90
12335;DHT22;6233;51.560;9.986;2023-05-07T12:36:12;11.60;99.90
12335;DHT22;6233;51.560;9.986;2023-05-07T12:39:14;11.70;99.90
12335;DHT22;6233;51.560;9.986;2023-05-07T12:42:16;11.90;99.90
12335;DHT22;6233;51.560;9.986;2023-05-07T12:45:21;11.90;99.90
12335;DHT22;6233;51.560;9.986;2023-05-07T12:48:32;11.90;99.90
12335;DHT22;6233;51.560;9.986;2023-05-07T12:51:35;11.80;99.90
12335;DHT22;6233;51.560;9.986;2023-05-07T12:54:37;11.80;99.90
12335;DHT22;6233;51.560;9.986;2023-05-07T12:57:50;11.90;99.90
12335;DHT22;6233;51.560;9.986;2023-05-07T13:00:53;11.90;99.90
12335;DHT22;6233;51.560;9.986;2023-05-07T13:03:57;11.90;99.90
12335;DHT22;6233;51.560;9.986;2023-05-07T13:07:02;11.90;99.90
12335;DHT22;6233;51.560;9.986;2023-05-07T13:10:04;11.90;99.90
12335;DHT22;6233;51.560;9.986;2023-05-07T13:13:06;11.80;99.90
12335;DHT22;6233;51.560;9.986;2023-05-07T13:16:10;11.80;99.90
12335;DHT22;6233;51.560;9.986;2023-05-07T13:19:12;11.80;99.90
12335;DHT22;6233;51.560;9.986;2023-05-07T13:22:14;12.00;99.90
12335;DHT22;6233;51.560;9.986;2023-05-07T13:25:16;12.20;99.90
12335;DHT22;6233;51.560;9.986;2023-05-07T13:28:18;12.40;99.90
12335;DHT22;6233;51.560;9.986;2023-05-07T13:31:19;12.40;99.90
12335;DHT22;6233;51.560;9.986;2023-05-07T13:34:22;12.60;99.90
12335;DHT22;6233;51.560;9.986;2023-05-07T13:37:24;12.80;99.90
12335;DHT22;6233;51.560;9.986;2023-05-07T13:40:26;12.80;99.90
12335;DHT22;6233;51.560;9.986;2023-05-07T13:43:28;12.60;99.90
12335;DHT22;6233;51.560;9.986;2023-05-07T13:46:29;12.60;99.90
12335;DHT22;6233;51.560;9.986;2023-05-07T13:49:31;12.60;99.90
12335;DHT22;6233;51.560;9.986;2023-05-07T13:56:32;12.40;99.90
12335;DHT22;6233;51.560;9.986;2023-05-07T13:59:34;12.50;99.90
12335;DHT22;6233;51.560;9.986;2023-05-07T14:02:35;12.40;99.90
12335;DHT22;6233;51.560;9.986;2023-05-07T14:05:37;12.30;99.90
12335;DHT22;6233;51.560;9.986;2023-05-07T14:08:39;12.30;99.90
12335;DHT22;6233;51.560;9.986;2023-05-07T14:11:41;12.20;99.90
12335;DHT22;6233;51.560;9.986;2023-05-07T14:14:42;12.10;99.90
12335;DHT22;6233;51.560;9.986;2023-05-07T14:17:44;12.20;99.90
12335;DHT22;6233;51.560;9.986;2023-05-07T14:20:46;12.20;99.90
12335;DHT22;6233;51.560;9.986;2023-05-07T14:23:50;12.30;99.90
12335;DHT22;6233;51.560;9.986;2023-05-07T14:26:52;12.20;99.90
12335;DHT22;6233;51.560;9.986;2023-05-07T14:29:54;12.20;99.90
12335;DHT22;6233;51.560;9.986;2023-05-07T14:32:56;12.20;99.90
12335;DHT22;6233;51.560;9.986;2023-05-07T14:35:58;12.20;99.90
12335;DHT22;6233;51.560;9.986;2023-05-07T14:38:59;12.20;99.90
12335;DHT22;6233;51.560;9.986;2023-05-07T14:42:01;12.20;99.90
12335;DHT22;6233;51.560;9.986;2023-05-07T14:45:03;12.20;99.90
12335;DHT22;6233;51.560;9.986;2023-05-07T14:48:06;12.20;99.90
12335;DHT22;6233;51.560;9.986;2023-05-07T14:51:07;12.20;99.90
12335;DHT22;6233;51.560;9.986;2023-05-07T14:54:09;12.20;99.90
12335;DHT22;6233;51.560;9.986;2023-05-07T14:57:13;12.30;99.90
12335;DHT22;6233;51.560;9.986;2023-05-07T15:00:16;12.30;99.90
12335;DHT22;6233;51.560;9.986;2023-05-07T15:03:23;12.30;99.90
12335;DHT22;6233;51.560;9.986;2023-05-07T15:06:25;12.30;99.90
12335;DHT22;6233;51.560;9.986;2023-05-07T15:09:29;12.30;99.90
12335;DHT22;6233;51.560;9.986;2023-05-07T15:12:31;12.30;99.90
12335;DHT22;6233;51.560;9.986;2023-05-07T15:15:32;12.30;99.90
12335;DHT22;6233;51.560;9.986;2023-05-07T15:18:34;12.30;99.90
12335;DHT22;6233;51.560;9.986;2023-05-07T15:21:36;12.30;99.90
12335;DHT22;6233;51.560;9.986;2023-05-07T15:24:38;12.40;99.90
12335;DHT22;6233;51.560;9.986;2023-05-07T15:27:40;12.40;99.90
12335;DHT22;6233;51.560;9.986;2023-05-07T15:30:41;12.40;99.90
12335;DHT22;6233;51.560;9.986;2023-05-07T15:33:43;12.30;99.90
12335;DHT22;6233;51.560;9.986;2023-05-07T15:36:46;12.30;99.90
12335;DHT22;6233;51.560;9.986;2023-05-07T15:39:48;12.30;99.90
12335;DHT22;6233;51.560;9.986;2023-05-07T15:42:49;12.40;99.90
12335;DHT22;6233;51.560;9.986;2023-05-07T15:45:55;12.30;99.90
12335;DHT22;6233;51.560;9.986;2023-05-07T15:48:57;12.30;99.90
12335;DHT22;6233;51.560;9.986;2023-05-07T15:51:59;12.30;99.90
12335;DHT22;6233;51.560;9.986;2023-05-07T15:55:04;12.40;99.90
12335;DHT22;6233;51.560;9.986;2023-05-07T15:58:07;12.30;99.90
12335;DHT22;6233;51.560;9.986;2023-05-07T16:01:09;12.20;99.90
12335;DHT22;6233;51.560;9.986;2023-05-07T16:04:11;12.20;99.90
12335;DHT22;6233;51.560;9.986;2023-05-07T16:07:13;12.10;99.90
12335;DHT22;6233;51.560;9.986;2023-05-07T16:10:14;12.00;99.90
12335;DHT22;6233;51.560;9.986;2023-05-07T16:13:16;12.00;99.90
12335;DHT22;6233;51.560;9.986;2023-05-07T16:16:19;12.00;99.90
12335;DHT22;6233;51.560;9.986;2023-05-07T16:19:22;11.90;99.90
12335;DHT22;6233;51.560;9.986;2023-05-07T16:22:41;11.90;99.90
12335;DHT22;6233;51.560;9.986;2023-05-07T16:25:43;11.90;99.90
12335;DHT22;6233;51.560;9.986;2023-05-07T16:28:45;11.80;99.90
12335;DHT22;6233;51.560;9.986;2023-05-07T16:31:46;11.90;99.90
12335;DHT22;6233;51.560;9.986;2023-05-07T16:34:48;11.90;99.90
12335;DHT22;6233;51.560;9.986;2023-05-07T16:37:50;11.80;99.90
12335;DHT22;6233;51.560;9.986;2023-05-07T16:40:52;11.70;99.90
12335;DHT22;6233;51.560;9.986;2023-05-07T16:43:53;11.60;99.90
12335;DHT22;6233;51.560;9.986;2023-05-07T16:46:55;11.50;99.90
12335;DHT22;6233;51.560;9.986;2023-05-07T16:49:57;11.50;99.90
12335;DHT22;6233;51.560;9.986;2023-05-07T16:53:00;11.50;99.90
12335;DHT22;6233;51.560;9.986;2023-05-07T16:56:05;11.40;99.90
12335;DHT22;6233;51.560;9.986;2023-05-07T16:59:07;11.30;99.90
12335;DHT22;6233;51.560;9.986;2023-05-07T17:02:08;11.30;99.90
12335;DHT22;6233;51.560;9.986;2023-05-07T17:05:10;11.30;99.90
12335;DHT22;6233;51.560;9.986;2023-05-07T17:08:12;11.20;99.90
12335;DHT22;6233;51.560;9.986;2023-05-07T17:11:15;11.30;99.90
12335;DHT22;6233;51.560;9.986;2023-05-07T17:14:16;11.20;99.90
12335;DHT22;6233;51.560;9.986;2023-05-07T17:17:18;11.10;99.90
12335;DHT22;6233;51.560;9.986;2023-05-07T17:20:20;11.00;99.90
12335;DHT22;6233;51.560;9.986;2023-05-07T17:23:21;11.00;99.90
12335;DHT22;6233;51.560;9.986;2023-05-07T17:26:23;11.00;99.90
12335;DHT22;6233;51.560;9.986;2023-05-07T17:29:25;11.00;99.90
12335;DHT22;6233;51.560;9.986;2023-05-07T17:32:27;10.90;99.90
12335;DHT22;6233;51.560;9.986;2023-05-07T17:35:30;10.90;99.90
12335;DHT22;6233;51.560;9.986;2023-05-07T17:38:33;10.90;99.90
12335;DHT22;6233;51.560;9.986;2023-05-07T17:41:35;10.90;99.90
12335;DHT22;6233;51.560;9.986;2023-05-07T17:44:37;10.80;99.90
12335;DHT22;6233;51.560;9.986;2023-05-07T17:47:39;10.80;99.90
12335;DHT22;6233;51.560;9.986;2023-05-07T17:50:41;10.80;99.90
12335;DHT22;6233;51.560;9.986;2023-05-07T17:53:44;10.80;99.90
12335;DHT22;6233;51.560;9.986;2023-05-07T17:56:46;10.70;99.90
12335;DHT22;6233;51.560;9.986;2023-05-07T17:59:48;10.70;99.90
12335;DHT22;6233;51.560;9.986;2023-05-07T18:02:52;10.70;99.90
12335;DHT22;6233;51.560;9.986;2023-05-07T18:05:54;10.70;99.90
12335;DHT22;6233;51.560;9.986;2023-05-07T18:08:56;10.60;99.90
12335;DHT22;6233;51.560;9.986;2023-05-07T18:11:57;10.60;99.90
12335;DHT22;6233;51.560;9.986;2023-05-07T18:15:00;10.60;99.90
12335;DHT22;6233;51.560;9.986;2023-05-07T18:18:02;10.50;99.90
12335;DHT22;6233;51.560;9.986;2023-05-07T18:21:04;10.40;99.90
12335;DHT22;6233;51.560;9.986;2023-05-07T18:24:06;10.40;99.90
12335;DHT22;6233;51.560;9.986;2023-05-07T18:27:08;10.40;99.90
12335;DHT22;6233;51.560;9.986;2023-05-07T18:30:10;10.30;99.90
12335;DHT22;6233;51.560;9.986;2023-05-07T18:33:12;10.20;99.90
12335;DHT22;6233;51.560;9.986;2023-05-07T18:36:14;10.20;99.90
12335;DHT22;6233;51.560;9.986;2023-05-07T18:39:16;10.10;99.90
12335;DHT22;6233;51.560;9.986;2023-05-07T18:42:18;10.20;99.90
12335;DHT22;6233;51.560;9.986;2023-05-07T18:45:20;10.20;99.90
12335;DHT22;6233;51.560;9.986;2023-05-07T18:48:22;10.10;99.90
12335;DHT22;6233;51.560;9.986;2023-05-07T18:51:24;10.10;99.90
12335;DHT22;6233;51.560;9.986;2023-05-07T18:54:30;10.20;99.90
12335;DHT22;6233;51.560;9.986;2023-05-07T18:57:32;10.10;99.90
12335;DHT22;6233;51.560;9.986;2023-05-07T19:00:34;10.00;99.90
12335;DHT22;6233;51.560;9.986;2023-05-07T19:03:36;10.10;99.90
12335;DHT22;6233;51.560;9.986;2023-05-07T19:06:37;10.00;99.90
12335;DHT22;6233;51.560;9.986;2023-05-07T19:09:39;10.00;99.90
12335;DHT22;6233;51.560;9.986;2023-05-07T19:12:54;9.90;99.90
12335;DHT22;6233;51.560;9.986;2023-05-07T19:15:58;9.90;99.90
12335;DHT22;6233;51.560;9.986;2023-05-07T19:19:00;9.90;99.90
12335;DHT22;6233;51.560;9.986;2023-05-07T19:22:01;9.90;99.90
12335;DHT22;6233;51.560;9.986;2023-05-07T19:25:03;9.90;99.90
12335;DHT22;6233;51.560;9.986;2023-05-07T19:28:05;9.90;99.90
12335;DHT22;6233;51.560;9.986;2023-05-07T19:31:07;9.90;99.90
12335;DHT22;6233;51.560;9.986;2023-05-07T19:34:09;9.90;99.90
12335;DHT22;6233;51.560;9.986;2023-05-07T19:37:11;9.90;99.90
12335;DHT22;6233;51.560;9.986;2023-05-07T19:40:12;9.90;99.90
12335;DHT22;6233;51.560;9.986;2023-05-07T19:43:15;9.80;99.90
12335;DHT22;6233;51.560;9.986;2023-05-07T19:46:17;9.80;99.90
12335;DHT22;6233;51.560;9.986;2023-05-07T19:49:18;9.80;99.90
12335;DHT22;6233;51.560;9.986;2023-05-07T19:52:20;9.80;99.90
12335;DHT22;6233;51.560;9.986;2023-05-07T19:55:22;9.80;99.90